sensor_id;sensor_type;location;lat;lon;timestamp;P1;durP1;ratioP1;P2;durP2;ratioP2
85472;SDS011;75874;41.386;22.136;2024-02-26T00:02:18;7.35;;;4.38;;
85472;SDS011;75874;41.386;22.136;2024-02-26T00:04:44;6.82;;;3.88;;
85472;SDS011;75874;41.386;22.136;2024-02-26T00:07:09;5.57;;;4.15;;
85472;SDS011;75874;41.386;22.136;2024-02-26T00:09:35;6.88;;;4.03;;
85472;SDS011;75874;41.386;22.136;2024-02-26T00:12:01;12.35;;;5.00;;
85472;SDS011;75874;41.386;22.136;2024-02-26T00:14:29;8.07;;;4.60;;
85472;SDS011;75874;41.386;22.136;2024-02-26T00:16:55;8.00;;;4.20;;
85472;SDS011;75874;41.386;22.136;2024-02-26T00:19:21;9.20;;;4.88;;
85472;SDS011;75874;41.386;22.136;2024-02-26T00:21:46;7.97;;;4.50;;
85472;SDS011;75874;41.386;22.136;2024-02-26T00:24:12;9.93;;;4.45;;
85472;SDS011;75874;41.386;22.136;2024-02-26T00:26:38;6.88;;;4.50;;
85472;SDS011;75874;41.386;22.136;2024-02-26T00:29:03;9.07;;;5.30;;
85472;SDS011;75874;41.386;22.136;2024-02-26T00:31:29;10.25;;;5.78;;
85472;SDS011;75874;41.386;22.136;2024-02-26T00:33:55;9.80;;;5.82;;
85472;SDS011;75874;41.386;22.136;2024-02-26T00:36:21;8.05;;;5.45;;
85472;SDS011;75874;41.386;22.136;2024-02-26T00:38:46;9.60;;;5.45;;
85472;SDS011;75874;41.386;22.136;2024-02-26T00:41:16;9.02;;;5.13;;
85472;SDS011;75874;41.386;22.136;2024-02-26T00:43:43;8.90;;;5.07;;
85472;SDS011;75874;41.386;22.136;2024-02-26T00:46:09;11.55;;;5.18;;
85472;SDS011;75874;41.386;22.136;2024-02-26T00:48:35;10.13;;;5.50;;
85472;SDS011;75874;41.386;22.136;2024-02-26T00:51:00;7.60;;;5.25;;
85472;SDS011;75874;41.386;22.136;2024-02-26T00:53:26;12.93;;;6.00;;
85472;SDS011;75874;41.386;22.136;2024-02-26T00:55:53;8.95;;;5.57;;
85472;SDS011;75874;41.386;22.136;2024-02-26T00:58:19;10.80;;;6.65;;
85472;SDS011;75874;41.386;22.136;2024-02-26T01:00:45;6.65;;;5.10;;
85472;SDS011;75874;41.386;22.136;2024-02-26T01:03:10;11.32;;;5.85;;
85472;SDS011;75874;41.386;22.136;2024-02-26T01:05:36;10.52;;;5.97;;
85472;SDS011;75874;41.386;22.136;2024-02-26T01:08:03;14.77;;;5.95;;
85472;SDS011;75874;41.386;22.136;2024-02-26T01:10:29;8.15;;;5.63;;
85472;SDS011;75874;41.386;22.136;2024-02-26T01:12:55;9.88;;;5.13;;
85472;SDS011;75874;41.386;22.136;2024-02-26T01:15:21;9.70;;;5.35;;
85472;SDS011;75874;41.386;22.136;2024-02-26T01:17:49;11.27;;;5.28;;
85472;SDS011;75874;41.386;22.136;2024-02-26T01:20:16;7.50;;;4.85;;
85472;SDS011;75874;41.386;22.136;2024-02-26T01:22:42;10.57;;;5.13;;
85472;SDS011;75874;41.386;22.136;2024-02-26T01:25:08;9.93;;;5.65;;
85472;SDS011;75874;41.386;22.136;2024-02-26T01:27:37;11.23;;;5.50;;
85472;SDS011;75874;41.386;22.136;2024-02-26T01:30:03;10.50;;;5.25;;
85472;SDS011;75874;41.386;22.136;2024-02-26T01:32:29;10.68;;;5.68;;
85472;SDS011;75874;41.386;22.136;2024-02-26T01:34:56;10.27;;;5.88;;
85472;SDS011;75874;41.386;22.136;2024-02-26T01:37:22;13.02;;;5.97;;
85472;SDS011;75874;41.386;22.136;2024-02-26T01:39:48;8.25;;;5.20;;
85472;SDS011;75874;41.386;22.136;2024-02-26T01:42:13;13.02;;;5.60;;
85472;SDS011;75874;41.386;22.136;2024-02-26T01:44:39;7.88;;;5.40;;
85472;SDS011;75874;41.386;22.136;2024-02-26T01:47:08;9.65;;;5.65;;
85472;SDS011;75874;41.386;22.136;2024-02-26T01:49:36;8.60;;;5.72;;
85472;SDS011;75874;41.386;22.136;2024-02-26T01:52:04;7.13;;;4.57;;
85472;SDS011;75874;41.386;22.136;2024-02-26T01:54:32;9.23;;;5.38;;
85472;SDS011;75874;41.386;22.136;2024-02-26T01:57:00;11.07;;;5.18;;
85472;SDS011;75874;41.386;22.136;2024-02-26T01:59:28;7.13;;;5.03;;
85472;SDS011;75874;41.386;22.136;2024-02-26T02:01:54;8.25;;;5.13;;
85472;SDS011;75874;41.386;22.136;2024-02-26T02:04:23;8.82;;;5.22;;
85472;SDS011;75874;41.386;22.136;2024-02-26T02:06:49;9.48;;;5.03;;
85472;SDS011;75874;41.386;22.136;2024-02-26T02:09:17;10.90;;;5.18;;
85472;SDS011;75874;41.386;22.136;2024-02-26T02:11:44;11.07;;;5.55;;
85472;SDS011;75874;41.386;22.136;2024-02-26T02:14:10;8.30;;;5.20;;
85472;SDS011;75874;41.386;22.136;2024-02-26T02:16:35;7.70;;;4.20;;
85472;SDS011;75874;41.386;22.136;2024-02-26T02:19:01;9.13;;;5.03;;
85472;SDS011;75874;41.386;22.136;2024-02-26T02:21:27;7.35;;;4.70;;
85472;SDS011;75874;41.386;22.136;2024-02-26T02:23:52;10.43;;;5.20;;
85472;SDS011;75874;41.386;22.136;2024-02-26T02:26:18;6.82;;;4.45;;
85472;SDS011;75874;41.386;22.136;2024-02-26T02:28:44;8.35;;;5.43;;
85472;SDS011;75874;41.386;22.136;2024-02-26T02:31:11;9.65;;;5.13;;
85472;SDS011;75874;41.386;22.136;2024-02-26T02:33:37;9.02;;;5.03;;
85472;SDS011;75874;41.386;22.136;2024-02-26T02:36:04;7.63;;;4.50;;
85472;SDS011;75874;41.386;22.136;2024-02-26T02:38:34;7.53;;;5.18;;
85472;SDS011;75874;41.386;22.136;2024-02-26T02:41:00;7.75;;;4.80;;
85472;SDS011;75874;41.386;22.136;2024-02-26T02:43:25;9.68;;;4.93;;
85472;SDS011;75874;41.386;22.136;2024-02-26T02:45:51;12.48;;;5.85;;
85472;SDS011;75874;41.386;22.136;2024-02-26T02:48:16;19.20;;;7.43;;
85472;SDS011;75874;41.386;22.136;2024-02-26T02:50:42;19.45;;;8.45;;
85472;SDS011;75874;41.386;22.136;2024-02-26T02:53:08;16.38;;;6.53;;
85472;SDS011;75874;41.386;22.136;2024-02-26T02:55:33;11.45;;;6.00;;
85472;SDS011;75874;41.386;22.136;2024-02-26T02:57:59;10.68;;;6.18;;
85472;SDS011;75874;41.386;22.136;2024-02-26T03:00:25;11.40;;;5.80;;
85472;SDS011;75874;41.386;22.136;2024-02-26T03:02:50;9.43;;;5.80;;
85472;SDS011;75874;41.386;22.136;2024-02-26T03:05:16;9.63;;;4.57;;
85472;SDS011;75874;41.386;22.136;2024-02-26T03:07:42;7.75;;;4.88;;
85472;SDS011;75874;41.386;22.136;2024-02-26T03:10:07;8.02;;;5.72;;
85472;SDS011;75874;41.386;22.136;2024-02-26T03:12:33;8.20;;;5.18;;
85472;SDS011;75874;41.386;22.136;2024-02-26T03:14:59;8.82;;;5.10;;
85472;SDS011;75874;41.386;22.136;2024-02-26T03:17:28;9.25;;;5.75;;
85472;SDS011;75874;41.386;22.136;2024-02-26T03:19:55;14.00;;;5.05;;
85472;SDS011;75874;41.386;22.136;2024-02-26T03:22:20;12.15;;;5.53;;
85472;SDS011;75874;41.386;22.136;2024-02-26T03:24:47;13.00;;;5.18;;
85472;SDS011;75874;41.386;22.136;2024-02-26T03:27:13;9.43;;;5.28;;
85472;SDS011;75874;41.386;22.136;2024-02-26T03:29:39;8.43;;;5.13;;
85472;SDS011;75874;41.386;22.136;2024-02-26T03:32:05;7.38;;;4.80;;
85472;SDS011;75874;41.386;22.136;2024-02-26T03:34:31;9.20;;;5.45;;
85472;SDS011;75874;41.386;22.136;2024-02-26T03:37:01;11.98;;;4.60;;
85472;SDS011;75874;41.386;22.136;2024-02-26T03:39:26;9.52;;;4.60;;
85472;SDS011;75874;41.386;22.136;2024-02-26T03:41:52;11.45;;;5.07;;
85472;SDS011;75874;41.386;22.136;2024-02-26T03:44:17;7.47;;;4.35;;
85472;SDS011;75874;41.386;22.136;2024-02-26T03:46:43;8.07;;;4.82;;
85472;SDS011;75874;41.386;22.136;2024-02-26T03:49:09;10.20;;;4.75;;
85472;SDS011;75874;41.386;22.136;2024-02-26T03:51:34;10.35;;;5.18;;
85472;SDS011;75874;41.386;22.136;2024-02-26T03:54:00;7.13;;;4.72;;
85472;SDS011;75874;41.386;22.136;2024-02-26T03:56:26;9.35;;;5.25;;
85472;SDS011;75874;41.386;22.136;2024-02-26T03:58:53;8.75;;;5.13;;
85472;SDS011;75874;41.386;22.136;2024-02-26T04:01:19;8.82;;;5.55;;
85472;SDS011;75874;41.386;22.136;2024-02-26T04:03:44;8.65;;;5.28;;
85472;SDS011;75874;41.386;22.136;2024-02-26T04:06:10;9.55;;;5.53;;
85472;SDS011;75874;41.386;22.136;2024-02-26T04:08:39;13.40;;;6.35;;
85472;SDS011;75874;41.386;22.136;2024-02-26T04:11:06;9.68;;;6.15;;
85472;SDS011;75874;41.386;22.136;2024-02-26T04:13:33;12.68;;;6.72;;
85472;SDS011;75874;41.386;22.136;2024-02-26T04:15:59;11.98;;;6.10;;
85472;SDS011;75874;41.386;22.136;2024-02-26T04:18:28;10.50;;;5.93;;
85472;SDS011;75874;41.386;22.136;2024-02-26T04:20:54;12.18;;;6.47;;
85472;SDS011;75874;41.386;22.136;2024-02-26T04:23:20;14.18;;;6.35;;
85472;SDS011;75874;41.386;22.136;2024-02-26T04:25:45;9.85;;;6.43;;
85472;SDS011;75874;41.386;22.136;2024-02-26T04:28:12;13.65;;;5.97;;
85472;SDS011;75874;41.386;22.136;2024-02-26T04:30:37;12.73;;;6.07;;
85472;SDS011;75874;41.386;22.136;2024-02-26T04:33:03;10.02;;;5.63;;
85472;SDS011;75874;41.386;22.136;2024-02-26T04:35:29;8.70;;;5.35;;
85472;SDS011;75874;41.386;22.136;2024-02-26T04:37:55;10.05;;;5.78;;
85472;SDS011;75874;41.386;22.136;2024-02-26T04:40:20;12.05;;;6.28;;
85472;SDS011;75874;41.386;22.136;2024-02-26T04:42:46;11.20;;;5.78;;
85472;SDS011;75874;41.386;22.136;2024-02-26T04:45:12;10.50;;;4.93;;
85472;SDS011;75874;41.386;22.136;2024-02-26T04:47:37;11.05;;;5.65;;
85472;SDS011;75874;41.386;22.136;2024-02-26T04:50:03;10.85;;;5.53;;
85472;SDS011;75874;41.386;22.136;2024-02-26T04:52:29;10.20;;;5.28;;
85472;SDS011;75874;41.386;22.136;2024-02-26T04:54:55;10.00;;;5.47;;
85472;SDS011;75874;41.386;22.136;2024-02-26T04:57:21;8.77;;;6.00;;
85472;SDS011;75874;41.386;22.136;2024-02-26T04:59:47;11.13;;;6.13;;
85472;SDS011;75874;41.386;22.136;2024-02-26T05:02:13;10.40;;;5.68;;
85472;SDS011;75874;41.386;22.136;2024-02-26T05:04:39;10.70;;;5.82;;
85472;SDS011;75874;41.386;22.136;2024-02-26T05:07:04;12.48;;;5.57;;
85472;SDS011;75874;41.386;22.136;2024-02-26T05:09:31;11.48;;;6.53;;
85472;SDS011;75874;41.386;22.136;2024-02-26T05:11:57;11.68;;;6.00;;
85472;SDS011;75874;41.386;22.136;2024-02-26T05:14:23;9.55;;;5.32;;
85472;SDS011;75874;41.386;22.136;2024-02-26T05:16:49;10.52;;;5.75;;
85472;SDS011;75874;41.386;22.136;2024-02-26T05:19:14;8.65;;;5.45;;
85472;SDS011;75874;41.386;22.136;2024-02-26T05:21:40;12.80;;;5.50;;
85472;SDS011;75874;41.386;22.136;2024-02-26T05:24:08;11.27;;;5.82;;
85472;SDS011;75874;41.386;22.136;2024-02-26T05:26:33;9.00;;;5.88;;
85472;SDS011;75874;41.386;22.136;2024-02-26T05:28:59;13.85;;;6.47;;
85472;SDS011;75874;41.386;22.136;2024-02-26T05:31:25;8.38;;;5.40;;
85472;SDS011;75874;41.386;22.136;2024-02-26T05:33:51;12.18;;;5.35;;
85472;SDS011;75874;41.386;22.136;2024-02-26T05:36:21;18.52;;;5.95;;
85472;SDS011;75874;41.386;22.136;2024-02-26T05:38:47;9.18;;;6.05;;
85472;SDS011;75874;41.386;22.136;2024-02-26T05:41:17;11.35;;;5.90;;
85472;SDS011;75874;41.386;22.136;2024-02-26T05:43:51;12.95;;;6.15;;
85472;SDS011;75874;41.386;22.136;2024-02-26T05:46:20;10.93;;;5.53;;
85472;SDS011;75874;41.386;22.136;2024-02-26T05:48:47;10.18;;;5.88;;
85472;SDS011;75874;41.386;22.136;2024-02-26T05:51:13;9.32;;;5.07;;
85472;SDS011;75874;41.386;22.136;2024-02-26T05:53:40;8.35;;;5.63;;
85472;SDS011;75874;41.386;22.136;2024-02-26T05:56:06;9.75;;;5.72;;
85472;SDS011;75874;41.386;22.136;2024-02-26T05:58:32;8.48;;;5.32;;
85472;SDS011;75874;41.386;22.136;2024-02-26T06:00:58;11.13;;;5.60;;
85472;SDS011;75874;41.386;22.136;2024-02-26T06:03:25;8.63;;;5.93;;
85472;SDS011;75874;41.386;22.136;2024-02-26T06:05:51;11.52;;;5.88;;
85472;SDS011;75874;41.386;22.136;2024-02-26T06:08:17;7.68;;;5.15;;
85472;SDS011;75874;41.386;22.136;2024-02-26T06:10:42;11.85;;;4.72;;
85472;SDS011;75874;41.386;22.136;2024-02-26T06:13:08;11.48;;;5.72;;
85472;SDS011;75874;41.386;22.136;2024-02-26T06:15:34;11.50;;;5.35;;
85472;SDS011;75874;41.386;22.136;2024-02-26T06:17:59;12.05;;;6.90;;
85472;SDS011;75874;41.386;22.136;2024-02-26T06:20:25;42.83;;;15.82;;
85472;SDS011;75874;41.386;22.136;2024-02-26T06:22:50;18.48;;;8.30;;
85472;SDS011;75874;41.386;22.136;2024-02-26T06:25:16;11.98;;;6.93;;
85472;SDS011;75874;41.386;22.136;2024-02-26T06:27:42;16.10;;;7.55;;
85472;SDS011;75874;41.386;22.136;2024-02-26T06:30:08;12.80;;;6.25;;
85472;SDS011;75874;41.386;22.136;2024-02-26T06:32:39;10.50;;;6.05;;
85472;SDS011;75874;41.386;22.136;2024-02-26T06:35:05;10.68;;;5.70;;
85472;SDS011;75874;41.386;22.136;2024-02-26T06:37:33;8.60;;;5.32;;
85472;SDS011;75874;41.386;22.136;2024-02-26T06:39:59;9.23;;;5.95;;
85472;SDS011;75874;41.386;22.136;2024-02-26T06:42:25;8.27;;;5.40;;
85472;SDS011;75874;41.386;22.136;2024-02-26T06:44:51;12.02;;;5.22;;
85472;SDS011;75874;41.386;22.136;2024-02-26T06:47:18;9.80;;;5.30;;
85472;SDS011;75874;41.386;22.136;2024-02-26T06:49:44;19.40;;;5.90;;
85472;SDS011;75874;41.386;22.136;2024-02-26T06:52:10;9.70;;;5.35;;
85472;SDS011;75874;41.386;22.136;2024-02-26T06:54:36;7.97;;;4.97;;
85472;SDS011;75874;41.386;22.136;2024-02-26T06:57:01;11.15;;;5.95;;
85472;SDS011;75874;41.386;22.136;2024-02-26T06:59:27;10.13;;;6.32;;
85472;SDS011;75874;41.386;22.136;2024-02-26T07:01:53;10.27;;;6.07;;
85472;SDS011;75874;41.386;22.136;2024-02-26T07:04:20;11.73;;;7.13;;
85472;SDS011;75874;41.386;22.136;2024-02-26T07:06:45;10.30;;;5.70;;
85472;SDS011;75874;41.386;22.136;2024-02-26T07:09:12;8.32;;;5.32;;
85472;SDS011;75874;41.386;22.136;2024-02-26T07:11:38;10.43;;;6.25;;
85472;SDS011;75874;41.386;22.136;2024-02-26T07:14:09;10.98;;;6.30;;
85472;SDS011;75874;41.386;22.136;2024-02-26T07:16:35;14.02;;;6.18;;
85472;SDS011;75874;41.386;22.136;2024-02-26T07:19:01;9.75;;;7.00;;
85472;SDS011;75874;41.386;22.136;2024-02-26T07:21:26;11.35;;;6.78;;
85472;SDS011;75874;41.386;22.136;2024-02-26T07:23:52;11.93;;;5.93;;
85472;SDS011;75874;41.386;22.136;2024-02-26T07:26:17;12.48;;;6.05;;
85472;SDS011;75874;41.386;22.136;2024-02-26T07:28:44;12.95;;;5.75;;
85472;SDS011;75874;41.386;22.136;2024-02-26T07:31:10;11.65;;;6.95;;
85472;SDS011;75874;41.386;22.136;2024-02-26T07:33:36;9.27;;;5.22;;
85472;SDS011;75874;41.386;22.136;2024-02-26T07:36:01;9.55;;;5.28;;
85472;SDS011;75874;41.386;22.136;2024-02-26T07:38:28;12.25;;;6.28;;
85472;SDS011;75874;41.386;22.136;2024-02-26T07:40:53;12.25;;;6.55;;
85472;SDS011;75874;41.386;22.136;2024-02-26T07:43:19;8.23;;;5.05;;
85472;SDS011;75874;41.386;22.136;2024-02-26T07:45:44;8.10;;;5.63;;
85472;SDS011;75874;41.386;22.136;2024-02-26T07:48:10;10.80;;;5.97;;
85472;SDS011;75874;41.386;22.136;2024-02-26T07:50:36;6.43;;;4.60;;
85472;SDS011;75874;41.386;22.136;2024-02-26T07:53:01;7.53;;;5.70;;
85472;SDS011;75874;41.386;22.136;2024-02-26T07:55:28;9.23;;;5.28;;
85472;SDS011;75874;41.386;22.136;2024-02-26T07:57:53;8.35;;;5.70;;
85472;SDS011;75874;41.386;22.136;2024-02-26T08:00:19;8.40;;;5.45;;
85472;SDS011;75874;41.386;22.136;2024-02-26T08:02:45;8.80;;;5.22;;
85472;SDS011;75874;41.386;22.136;2024-02-26T08:05:12;9.13;;;5.53;;
85472;SDS011;75874;41.386;22.136;2024-02-26T08:07:38;10.57;;;5.63;;
85472;SDS011;75874;41.386;22.136;2024-02-26T08:10:03;9.02;;;6.15;;
85472;SDS011;75874;41.386;22.136;2024-02-26T08:12:29;9.25;;;6.00;;
85472;SDS011;75874;41.386;22.136;2024-02-26T08:14:55;9.52;;;5.43;;
85472;SDS011;75874;41.386;22.136;2024-02-26T08:17:21;8.85;;;5.25;;
85472;SDS011;75874;41.386;22.136;2024-02-26T08:19:47;9.88;;;5.30;;
85472;SDS011;75874;41.386;22.136;2024-02-26T08:22:12;10.55;;;5.68;;
85472;SDS011;75874;41.386;22.136;2024-02-26T08:24:42;8.48;;;5.40;;
85472;SDS011;75874;41.386;22.136;2024-02-26T08:27:08;11.40;;;6.00;;
85472;SDS011;75874;41.386;22.136;2024-02-26T08:29:33;10.50;;;6.90;;
85472;SDS011;75874;41.386;22.136;2024-02-26T08:31:59;8.75;;;5.95;;
85472;SDS011;75874;41.386;22.136;2024-02-26T08:34:25;11.68;;;6.38;;
85472;SDS011;75874;41.386;22.136;2024-02-26T08:36:51;10.68;;;6.32;;
85472;SDS011;75874;41.386;22.136;2024-02-26T08:39:17;13.63;;;6.35;;
85472;SDS011;75874;41.386;22.136;2024-02-26T08:41:43;10.90;;;6.13;;
85472;SDS011;75874;41.386;22.136;2024-02-26T08:44:10;10.50;;;7.60;;
85472;SDS011;75874;41.386;22.136;2024-02-26T08:49:57;8.38;;;6.07;;
85472;SDS011;75874;41.386;22.136;2024-02-26T08:52:23;10.45;;;6.45;;
85472;SDS011;75874;41.386;22.136;2024-02-26T08:54:49;9.98;;;6.65;;
85472;SDS011;75874;41.386;22.136;2024-02-26T08:57:15;10.75;;;7.25;;
85472;SDS011;75874;41.386;22.136;2024-02-26T08:59:40;11.35;;;6.95;;
85472;SDS011;75874;41.386;22.136;2024-02-26T09:02:07;9.75;;;5.28;;
85472;SDS011;75874;41.386;22.136;2024-02-26T09:04:34;12.80;;;5.82;;
85472;SDS011;75874;41.386;22.136;2024-02-26T09:07:10;12.80;;;5.93;;
85472;SDS011;75874;41.386;22.136;2024-02-26T09:09:35;7.82;;;5.65;;
85472;SDS011;75874;41.386;22.136;2024-02-26T09:12:01;13.75;;;6.43;;
85472;SDS011;75874;41.386;22.136;2024-02-26T09:14:27;9.82;;;5.88;;
85472;SDS011;75874;41.386;22.136;2024-02-26T09:16:53;7.80;;;5.28;;
85472;SDS011;75874;41.386;22.136;2024-02-26T09:19:18;8.93;;;5.15;;
85472;SDS011;75874;41.386;22.136;2024-02-26T09:21:44;10.43;;;5.47;;
85472;SDS011;75874;41.386;22.136;2024-02-26T09:24:11;9.13;;;5.50;;
85472;SDS011;75874;41.386;22.136;2024-02-26T09:26:37;7.78;;;5.05;;
85472;SDS011;75874;41.386;22.136;2024-02-26T09:29:03;6.57;;;4.85;;
85472;SDS011;75874;41.386;22.136;2024-02-26T09:31:29;6.47;;;4.93;;
85472;SDS011;75874;41.386;22.136;2024-02-26T09:33:59;8.07;;;4.70;;
85472;SDS011;75874;41.386;22.136;2024-02-26T09:36:25;9.02;;;4.65;;
85472;SDS011;75874;41.386;22.136;2024-02-26T09:38:50;9.50;;;4.82;;
85472;SDS011;75874;41.386;22.136;2024-02-26T09:41:32;9.57;;;4.75;;
85472;SDS011;75874;41.386;22.136;2024-02-26T09:43:57;9.35;;;4.47;;
85472;SDS011;75874;41.386;22.136;2024-02-26T09:46:27;9.38;;;4.90;;
85472;SDS011;75874;41.386;22.136;2024-02-26T09:48:54;7.28;;;4.57;;
85472;SDS011;75874;41.386;22.136;2024-02-26T09:51:25;9.10;;;5.10;;
85472;SDS011;75874;41.386;22.136;2024-02-26T09:53:51;8.05;;;4.53;;
85472;SDS011;75874;41.386;22.136;2024-02-26T09:56:18;7.70;;;4.30;;
85472;SDS011;75874;41.386;22.136;2024-02-26T09:58:45;6.75;;;4.35;;
85472;SDS011;75874;41.386;22.136;2024-02-26T10:01:16;8.95;;;5.00;;
85472;SDS011;75874;41.386;22.136;2024-02-26T10:03:43;6.40;;;4.70;;
85472;SDS011;75874;41.386;22.136;2024-02-26T10:06:13;6.15;;;4.88;;
85472;SDS011;75874;41.386;22.136;2024-02-26T10:08:39;7.40;;;4.30;;
85472;SDS011;75874;41.386;22.136;2024-02-26T10:11:05;7.28;;;4.30;;
85472;SDS011;75874;41.386;22.136;2024-02-26T10:13:34;6.97;;;4.32;;
85472;SDS011;75874;41.386;22.136;2024-02-26T10:16:01;7.85;;;3.95;;
85472;SDS011;75874;41.386;22.136;2024-02-26T10:18:50;7.03;;;4.13;;
85472;SDS011;75874;41.386;22.136;2024-02-26T10:21:18;6.45;;;4.30;;
85472;SDS011;75874;41.386;22.136;2024-02-26T10:23:46;7.25;;;4.35;;
85472;SDS011;75874;41.386;22.136;2024-02-26T10:26:15;9.70;;;3.88;;
85472;SDS011;75874;41.386;22.136;2024-02-26T10:28:45;5.57;;;3.67;;
85472;SDS011;75874;41.386;22.136;2024-02-26T10:31:11;6.10;;;4.03;;
85472;SDS011;75874;41.386;22.136;2024-02-26T10:33:39;6.57;;;3.60;;
85472;SDS011;75874;41.386;22.136;2024-02-26T10:36:07;5.60;;;3.50;;
85472;SDS011;75874;41.386;22.136;2024-02-26T10:38:34;6.95;;;3.83;;
85472;SDS011;75874;41.386;22.136;2024-02-26T10:41:02;7.65;;;4.25;;
85472;SDS011;75874;41.386;22.136;2024-02-26T10:43:28;6.20;;;3.80;;
85472;SDS011;75874;41.386;22.136;2024-02-26T10:45:55;7.30;;;4.28;;
85472;SDS011;75874;41.386;22.136;2024-02-26T10:54:29;4.43;;;3.30;;
85472;SDS011;75874;41.386;22.136;2024-02-26T10:56:57;6.40;;;3.58;;
85472;SDS011;75874;41.386;22.136;2024-02-26T11:02:19;5.82;;;3.47;;
85472;SDS011;75874;41.386;22.136;2024-02-26T11:07:11;6.28;;;3.70;;
85472;SDS011;75874;41.386;22.136;2024-02-26T11:09:38;6.10;;;3.70;;
85472;SDS011;75874;41.386;22.136;2024-02-26T11:12:12;6.68;;;3.80;;
85472;SDS011;75874;41.386;22.136;2024-02-26T11:14:42;5.40;;;3.65;;
85472;SDS011;75874;41.386;22.136;2024-02-26T11:17:11;6.30;;;4.00;;
85472;SDS011;75874;41.386;22.136;2024-02-26T11:19:38;6.18;;;3.40;;
85472;SDS011;75874;41.386;22.136;2024-02-26T11:22:06;6.50;;;3.53;;
85472;SDS011;75874;41.386;22.136;2024-02-26T11:24:32;7.10;;;3.67;;
85472;SDS011;75874;41.386;22.136;2024-02-26T11:26:59;5.07;;;3.58;;
85472;SDS011;75874;41.386;22.136;2024-02-26T11:29:29;7.93;;;3.65;;
85472;SDS011;75874;41.386;22.136;2024-02-26T11:32:05;9.00;;;4.07;;
85472;SDS011;75874;41.386;22.136;2024-02-26T11:34:32;6.13;;;4.13;;
85472;SDS011;75874;41.386;22.136;2024-02-26T11:36:57;5.68;;;3.60;;
85472;SDS011;75874;41.386;22.136;2024-02-26T11:39:35;6.72;;;3.13;;
85472;SDS011;75874;41.386;22.136;2024-02-26T11:42:12;5.80;;;3.40;;
85472;SDS011;75874;41.386;22.136;2024-02-26T11:44:40;8.18;;;4.15;;
85472;SDS011;75874;41.386;22.136;2024-02-26T11:47:12;5.28;;;3.15;;
85472;SDS011;75874;41.386;22.136;2024-02-26T11:49:45;7.13;;;3.35;;
85472;SDS011;75874;41.386;22.136;2024-02-26T11:52:12;6.60;;;3.33;;
85472;SDS011;75874;41.386;22.136;2024-02-26T11:54:46;4.90;;;3.45;;
85472;SDS011;75874;41.386;22.136;2024-02-26T11:57:25;8.18;;;3.80;;
85472;SDS011;75874;41.386;22.136;2024-02-26T11:59:56;6.38;;;3.15;;
85472;SDS011;75874;41.386;22.136;2024-02-26T12:05:18;8.05;;;3.50;;
85472;SDS011;75874;41.386;22.136;2024-02-26T12:07:46;5.68;;;3.33;;
85472;SDS011;75874;41.386;22.136;2024-02-26T12:10:23;5.38;;;2.80;;
85472;SDS011;75874;41.386;22.136;2024-02-26T12:13:00;5.57;;;2.90;;
85472;SDS011;75874;41.386;22.136;2024-02-26T12:15:40;5.75;;;2.70;;
85472;SDS011;75874;41.386;22.136;2024-02-26T12:18:17;9.18;;;2.83;;
85472;SDS011;75874;41.386;22.136;2024-02-26T12:20:43;8.68;;;3.03;;
85472;SDS011;75874;41.386;22.136;2024-02-26T12:23:13;7.65;;;3.50;;
85472;SDS011;75874;41.386;22.136;2024-02-26T12:25:43;4.97;;;2.75;;
85472;SDS011;75874;41.386;22.136;2024-02-26T12:28:09;4.70;;;2.97;;
85472;SDS011;75874;41.386;22.136;2024-02-26T12:30:35;7.65;;;3.45;;
85472;SDS011;75874;41.386;22.136;2024-02-26T12:33:01;7.13;;;3.20;;
85472;SDS011;75874;41.386;22.136;2024-02-26T12:35:28;6.47;;;3.20;;
85472;SDS011;75874;41.386;22.136;2024-02-26T12:37:57;9.10;;;3.30;;
85472;SDS011;75874;41.386;22.136;2024-02-26T12:40:23;9.98;;;3.25;;
85472;SDS011;75874;41.386;22.136;2024-02-26T12:42:49;6.00;;;2.90;;
85472;SDS011;75874;41.386;22.136;2024-02-26T12:45:15;7.97;;;3.60;;
85472;SDS011;75874;41.386;22.136;2024-02-26T12:47:42;6.70;;;3.50;;
85472;SDS011;75874;41.386;22.136;2024-02-26T12:50:09;4.82;;;3.33;;
85472;SDS011;75874;41.386;22.136;2024-02-26T12:52:37;5.03;;;3.20;;
85472;SDS011;75874;41.386;22.136;2024-02-26T12:55:10;6.88;;;3.00;;
85472;SDS011;75874;41.386;22.136;2024-02-26T12:57:40;7.47;;;3.50;;
85472;SDS011;75874;41.386;22.136;2024-02-26T13:00:08;6.05;;;3.25;;
85472;SDS011;75874;41.386;22.136;2024-02-26T13:02:39;5.03;;;3.30;;
85472;SDS011;75874;41.386;22.136;2024-02-26T13:05:09;7.90;;;3.58;;
85472;SDS011;75874;41.386;22.136;2024-02-26T13:07:43;5.68;;;3.17;;
85472;SDS011;75874;41.386;22.136;2024-02-26T13:10:11;7.75;;;3.33;;
85472;SDS011;75874;41.386;22.136;2024-02-26T13:12:37;5.32;;;3.13;;
85472;SDS011;75874;41.386;22.136;2024-02-26T13:15:13;5.28;;;3.03;;
85472;SDS011;75874;41.386;22.136;2024-02-26T13:17:40;5.70;;;3.35;;
85472;SDS011;75874;41.386;22.136;2024-02-26T13:20:07;10.73;;;4.55;;
85472;SDS011;75874;41.386;22.136;2024-02-26T13:22:35;8.20;;;3.60;;
85472;SDS011;75874;41.386;22.136;2024-02-26T13:25:01;5.68;;;3.30;;
85472;SDS011;75874;41.386;22.136;2024-02-26T13:27:28;7.65;;;3.35;;
85472;SDS011;75874;41.386;22.136;2024-02-26T13:32:33;10.57;;;3.65;;
85472;SDS011;75874;41.386;22.136;2024-02-26T13:35:10;8.05;;;3.40;;
85472;SDS011;75874;41.386;22.136;2024-02-26T13:37:38;8.02;;;3.28;;
85472;SDS011;75874;41.386;22.136;2024-02-26T13:40:08;8.10;;;3.67;;
85472;SDS011;75874;41.386;22.136;2024-02-26T13:42:35;4.95;;;3.17;;
85472;SDS011;75874;41.386;22.136;2024-02-26T13:45:02;7.78;;;3.45;;
85472;SDS011;75874;41.386;22.136;2024-02-26T13:47:32;6.97;;;2.90;;
85472;SDS011;75874;41.386;22.136;2024-02-26T13:49:58;4.95;;;2.72;;
85472;SDS011;75874;41.386;22.136;2024-02-26T13:52:24;7.07;;;2.95;;
85472;SDS011;75874;41.386;22.136;2024-02-26T13:54:52;6.03;;;3.10;;
85472;SDS011;75874;41.386;22.136;2024-02-26T13:57:18;4.50;;;3.15;;
85472;SDS011;75874;41.386;22.136;2024-02-26T13:59:44;6.90;;;3.20;;
85472;SDS011;75874;41.386;22.136;2024-02-26T14:02:10;9.65;;;3.40;;
85472;SDS011;75874;41.386;22.136;2024-02-26T14:04:36;5.55;;;3.45;;
85472;SDS011;75874;41.386;22.136;2024-02-26T14:07:03;7.18;;;3.83;;
85472;SDS011;75874;41.386;22.136;2024-02-26T14:09:29;9.18;;;3.33;;
85472;SDS011;75874;41.386;22.136;2024-02-26T14:11:55;5.85;;;3.97;;
85472;SDS011;75874;41.386;22.136;2024-02-26T14:14:20;7.78;;;4.22;;
85472;SDS011;75874;41.386;22.136;2024-02-26T14:16:46;9.95;;;3.85;;
85472;SDS011;75874;41.386;22.136;2024-02-26T14:19:12;8.68;;;3.75;;
85472;SDS011;75874;41.386;22.136;2024-02-26T14:21:37;11.75;;;3.72;;
85472;SDS011;75874;41.386;22.136;2024-02-26T14:24:04;5.05;;;3.13;;
85472;SDS011;75874;41.386;22.136;2024-02-26T14:26:30;6.47;;;3.83;;
85472;SDS011;75874;41.386;22.136;2024-02-26T14:28:56;5.50;;;3.60;;
85472;SDS011;75874;41.386;22.136;2024-02-26T14:31:21;6.95;;;3.60;;
85472;SDS011;75874;41.386;22.136;2024-02-26T14:33:47;6.35;;;3.42;;
85472;SDS011;75874;41.386;22.136;2024-02-26T14:36:13;8.45;;;3.83;;
85472;SDS011;75874;41.386;22.136;2024-02-26T14:38:39;8.20;;;3.97;;
85472;SDS011;75874;41.386;22.136;2024-02-26T14:41:05;8.20;;;3.88;;
85472;SDS011;75874;41.386;22.136;2024-02-26T14:43:31;8.07;;;3.90;;
85472;SDS011;75874;41.386;22.136;2024-02-26T14:46:00;7.13;;;4.13;;
85472;SDS011;75874;41.386;22.136;2024-02-26T14:48:26;10.70;;;4.75;;
85472;SDS011;75874;41.386;22.136;2024-02-26T14:50:51;8.43;;;4.15;;